METAR Data
IDs: Format: Raw Decoded Include TAF

Data at: 0545 UTC 24 Sep 2018

KBEC 240535Z AUTO 17003KT 10SM CLR 15/14 A2996 RMK AO2 T01450135
KBEC 240515Z AUTO 19005KT 10SM CLR 15/14 A2997 RMK AO2 T01470135
KBEC 240455Z AUTO 18004KT 10SM CLR 15/14 A2997 RMK AO2 T01500135
KBEC 240435Z AUTO 18005KT 10SM CLR 16/14 A2997 RMK AO2 T01550135
KBEC 240415Z AUTO 16006KT 10SM CLR 16/14 A2997 RMK AO2 T01610135
KBEC 240355Z AUTO 14005KT 10SM CLR 17/13 A2996 RMK AO2 T01650132
KBEC 240335Z AUTO 13004KT 10SM CLR 17/13 A2995 RMK AO2 T01670131
KBEC 240315Z AUTO 13003KT 10SM CLR 17/13 A2995 RMK AO2 T01690130
KBEC 240255Z AUTO 11004KT 10SM CLR 17/13 A2995 RMK AO2 T01740130
KBEC 240235Z AUTO 11004KT 10SM CLR 18/13 A2995 RMK AO2 T01770130
KBEC 240215Z AUTO 11005KT 10SM CLR 18/13 A2995 RMK AO2 T01770130
KBEC 240155Z AUTO 12004KT 10SM CLR 18/13 A2995 RMK AO2 T01840128
KBEC 240135Z AUTO 11004KT 10SM CLR 19/13 A2994 RMK AO2 T01900130
KBEC 240115Z AUTO 11005KT 10SM CLR 20/13 A2994 RMK AO2 T01950128
KBEC 240055Z AUTO 11005KT 10SM CLR 20/13 A2994 RMK AO2 T02040128
KBEC 240035Z AUTO 12004KT 10SM CLR 21/13 A2994 RMK AO2 T02130131
KBEC 240015Z AUTO 11004KT 10SM CLR 22/13 A2993 RMK AO2 T02230128
KBEC 232355Z AUTO 13005KT 10SM CLR 23/13 A2994 RMK AO2 T02340129 10258 20194
KBEC 232335Z AUTO 13007KT 10SM CLR 24/13 A2994 RMK AO2 T02420129
KBEC 232315Z AUTO 13010KT 10SM CLR 25/13 A2993 RMK AO2 T02480125
KBEC 232255Z AUTO 13007KT 10SM CLR 25/13 A2994 RMK AO2 T02510125
KBEC 232235Z AUTO 12007KT 10SM CLR 25/13 A2995 RMK AO2 T02540126
KBEC 232215Z AUTO 14005KT 10SM CLR 25/13 A2995 RMK AO2 T02540130
KBEC 232155Z AUTO 12008KT 10SM CLR 26/13 A2995 RMK AO2 T02560134
KBEC 232135Z AUTO 16006KT 10SM CLR 26/13 A2995 RMK AO2 T02560133
KBEC 232115Z AUTO 14008KT 10SM CLR 26/13 A2996 RMK AO2 T02560133
KBEC 232055Z AUTO 11009G14KT 10SM CLR 26/14 A2997 RMK AO2 T02560137
KBEC 232035Z AUTO 12005KT 10SM CLR 25/14 A2997 RMK AO2 T02510144
KBEC 232015Z AUTO 14005KT 10SM CLR 25/14 A2999 RMK AO2 T02450141
KBEC 231955Z AUTO 13006KT 10SM CLR 24/15 A3000 RMK AO2 T02410151
KBEC 231935Z AUTO 12008KT 100V200 10SM CLR 24/16 A3001 RMK AO2 T02390156
KBEC 231915Z AUTO 18008KT 10SM CLR 23/15 A3002 RMK AO2 T02260154
KBEC 231855Z AUTO 20004KT 10SM CLR 22/15 A3004 RMK AO2 T02180154
KBEC 231835Z AUTO 15006KT 10SM CLR 21/15 A3005 RMK AO2 T02090150
KBEC 231815Z AUTO 14006KT 10SM SCT014 20/15 A3006 RMK AO2 T02030149
KBEC 231755Z AUTO 15007KT 10SM OVC014 19/15 A3006 RMK AO2 T01930146 10199 20120
KBEC 231735Z AUTO 15007KT 10SM OVC014 19/15 A3007 RMK AO2 T01880146
KBEC 231715Z AUTO 13007KT 10SM OVC012 19/14 A3007 RMK AO2 T01890144
KBEC 231655Z AUTO 14007KT 10SM OVC012 18/14 A3008 RMK AO2 T01810144
KBEC 231635Z AUTO 13008KT 10SM OVC010 18/14 A3008 RMK AO2 T01780144
KBEC 231615Z AUTO 13008KT 10SM OVC010 18/15 A3008 RMK AO2 T01760145
KBEC 231555Z AUTO 14007KT 10SM OVC010 17/14 A3009 RMK AO2 T01710142
KBEC 231535Z AUTO 13007KT 10SM OVC008 17/15 A3009 RMK AO2 T01690146
KBEC 231515Z AUTO 13006KT 10SM OVC008 17/15 A3008 RMK AO2 T01660146
KBEC 231455Z AUTO 13006KT 10SM OVC008 17/15 A3007 RMK AO2 T01720151
KBEC 231435Z AUTO 14006KT 10SM SCT008 16/14 A3007 RMK AO2 T01630143
KBEC 231415Z AUTO 14004KT 10SM CLR 16/14 A3007 RMK AO2 T01580144
KBEC 231355Z AUTO 13004KT 10SM CLR 15/14 A3007 RMK AO2 T01490140
KBEC 231335Z AUTO 00000KT 10SM CLR 14/14 A3007 RMK AO2 T01400135
KBEC 231315Z AUTO 00000KT 7SM SCT011 14/13 A3007 RMK AO2 T01350130
KBEC 231255Z AUTO 11003KT 7SM BKN011 13/13 A3007 RMK AO2 T01290125
KBEC 231235Z AUTO 10003KT 5SM BR SCT011 12/12 A3007 RMK AO2 T01210117
KBEC 231215Z AUTO 00000KT 7SM CLR 12/12 A3007 RMK AO2 T01200116
KBEC 231155Z AUTO 00000KT 10SM CLR 12/11 A3007 RMK AO2 T01210114 10140 20120
KBEC 231135Z AUTO 00000KT 10SM CLR 12/11 A3006 RMK AO2 T01210114
KBEC 231115Z AUTO 00000KT 10SM CLR 13/12 A3006 RMK AO2 T01260120
KBEC 231055Z AUTO 00000KT 10SM CLR 12/11 A3006 RMK AO2 T01220113
KBEC 231035Z AUTO 00000KT 10SM CLR 12/12 A3006 RMK AO2 T01240117
KBEC 231015Z AUTO 00000KT 10SM CLR 12/11 A3006 RMK AO2 T01220114
KBEC 230955Z AUTO 00000KT 10SM CLR 13/12 A3006 RMK AO2 T01310122
KBEC 230935Z AUTO 00000KT 10SM CLR 13/12 A3006 RMK AO2 T01250119
KBEC 230915Z AUTO 13003KT 10SM CLR 13/12 A3005 RMK AO2 T01250116
KBEC 230850Z AUTO 13004KT 10SM CLR 13/12 A3006 RMK AO2 T01270116
KBEC 230835Z AUTO 00000KT 10SM CLR 13/12 A3006 RMK AO2 T01270117
KBEC 230815Z AUTO 13003KT 10SM CLR 13/12 A3006 RMK AO2 T01300117
KBEC 230755Z AUTO 12003KT 10SM CLR 13/12 A3006 RMK AO2 T01290115
KBEC 230735Z AUTO 12003KT 10SM CLR 13/12 A3007 RMK AO2 T01310115
KBEC 230715Z AUTO 12003KT 10SM CLR 14/12 A3007 RMK AO2 T01350117
KBEC 230655Z AUTO 11003KT 10SM CLR 14/12 A3007 RMK AO2 T01350116
KBEC 230635Z AUTO 12003KT 10SM CLR 14/12 A3008 RMK AO2 T01350116
KBEC 230615Z AUTO 12004KT 10SM CLR 14/12 A3008 RMK AO2 T01370116
KBEC 230555Z AUTO 13004KT 10SM CLR 14/12 A3008 RMK AO2 T01400116 10210 20140 402280090
KBEC 230535Z AUTO 12004KT 10SM CLR 14/12 A3008 RMK AO2 T01400116
KBEC 230515Z AUTO 11004KT 10SM CLR 15/12 A3008 RMK AO2 T01450117
KBEC 230455Z AUTO 10004KT 10SM CLR 15/12 A3009 RMK AO2 T01530120
KBEC 230435Z AUTO 09003KT 10SM CLR 16/12 A3009 RMK AO2 T01550120
KBEC 230415Z AUTO 11004KT 10SM CLR 16/12 A3009 RMK AO2 T01570120
KBEC 230355Z AUTO 09004KT 10SM CLR 16/12 A3009 RMK AO2 T01560120
KBEC 230335Z AUTO 10005KT 10SM CLR 16/12 A3010 RMK AO2 T01580120
KBEC 230315Z AUTO 10006KT 10SM CLR 16/12 A3010 RMK AO2 T01600120
KBEC 230255Z AUTO 10005KT 10SM CLR 16/12 A3010 RMK AO2 T01610119
KBEC 230235Z AUTO 11005KT 10SM CLR 16/12 A3010 RMK AO2 T01600116
KBEC 230215Z AUTO 10005KT 10SM CLR 17/12 A3010 RMK AO2 T01710116
KBEC 230155Z AUTO 08004KT 10SM CLR 18/12 A3009 RMK AO2 T01760115
KBEC 230135Z AUTO 09005KT 10SM CLR 18/11 A3009 RMK AO2 T01770113
KBEC 230115Z AUTO 08004KT 10SM CLR 18/11 A3009 RMK AO2 T01830111
KBEC 230055Z AUTO 08005KT 10SM CLR 19/11 A3008 RMK AO2 T01900111
KBEC 230035Z AUTO 08004KT 10SM CLR 19/11 A3008 RMK AO2 T01920111
KBEC 230015Z AUTO 06003KT 10SM CLR 20/11 A3008 RMK AO2 T02000110
KBEC 222355Z AUTO 06005KT 10SM CLR 21/10 A3008 RMK AO2 T02110104 10228 20196
KBEC 222335Z AUTO 06006KT 10SM CLR 22/11 A3008 RMK AO2 T02190105
KBEC 222315Z AUTO 07006KT 10SM CLR 22/11 A3008 RMK AO2 T02200108
KBEC 222255Z AUTO 05006KT 10SM CLR 22/11 A3009 RMK AO2 T02210110
KBEC 222235Z AUTO 06006KT 10SM CLR 22/11 A3009 RMK AO2 T02210111
KBEC 222215Z AUTO 06006KT 10SM CLR 23/11 A3009 RMK AO2 T02250109
KBEC 222155Z AUTO 08005KT 10SM CLR 23/11 A3010 RMK AO2 T02250114
KBEC 222135Z AUTO 06006KT 10SM CLR 23/12 A3010 RMK AO2 T02250116
KBEC 222115Z AUTO 10007KT 7SM SCT031 22/11 A3011 RMK AO2 T02240114
KBEC 222055Z AUTO 08010KT 10SM CLR 23/11 A3012 RMK AO2 T02260113
KBEC 222035Z AUTO 08005KT 10SM CLR 23/11 A3012 RMK AO2 T02250114
KBEC 222015Z AUTO 06006KT 10SM CLR 22/11 A3013 RMK AO2 T02200113
KBEC 221955Z AUTO 06009KT 10SM CLR 22/12 A3014 RMK AO2 T02190116
KBEC 221935Z AUTO 07005G09KT 010V070 10SM CLR 22/11 A3015 RMK AO2 T02160111
KBEC 221915Z AUTO 04008KT 10SM CLR 21/12 A3015 RMK AO2 T02130116
KBEC 221855Z AUTO 10007KT 10SM CLR 21/12 A3017 RMK AO2 T02110115
KBEC 221835Z AUTO 09005KT 10SM CLR 21/11 A3018 RMK AO2 T02090113
KBEC 221815Z AUTO 05005KT 10SM CLR 20/11 A3018 RMK AO2 T02000110
KBEC 221755Z AUTO 05009KT 10SM CLR 20/11 A3019 RMK AO2 T01960112 10201 20090